Time;durP1;ratioP1;P1;durP2;ratioP2;P2;SDS_P1;SDS_P2;PMS_P1;PMS_P2;Temp;Humidity;BMP_temperature;BMP_pressure;BME280_temperature;BME280_humidity;BME280_pressure;Samples;Min_cycle;Max_cycle;Signal;HPM_P1;HPM_P2
2022/07/19 00:01:03;;;;;;;4.72;1.67;;;;;;;19.53;78.15;101696.00;6223780;28;20053;-76
2022/07/19 00:04:05;;;;;;;3.58;1.63;;;;;;;19.46;78.95;101694.75;6223649;28;20493;-76
2022/07/19 00:07:06;;;;;;;3.40;1.75;;;;;;;19.42;78.83;101691.44;6223204;28;20516;-76
2022/07/19 00:10:10;;;;;;;3.88;2.55;;;;;;;19.40;79.00;101689.88;6223686;28;20421;-76
2022/07/19 00:13:13;;;;;;;2.97;1.73;;;;;;;19.33;79.28;101683.31;6224466;28;20065;-76
2022/07/19 00:16:14;;;;;;;4.78;1.70;;;;;;;19.25;79.82;101679.38;6223538;28;20395;-76
2022/07/19 00:19:16;;;;;;;1.67;1.50;;;;;;;19.23;79.76;101685.81;6223262;28;20060;-76
2022/07/19 00:22:17;;;;;;;3.75;1.90;;;;;;;19.17;80.52;101695.13;6223371;28;20069;-75
2022/07/19 00:25:19;;;;;;;3.05;1.92;;;;;;;19.10;80.84;101691.19;6223049;28;20054;-76
2022/07/19 00:28:21;;;;;;;3.75;1.90;;;;;;;19.06;81.56;101691.53;6223152;28;20050;-76
2022/07/19 00:31:23;;;;;;;2.17;1.73;;;;;;;18.98;82.17;101689.44;6224179;28;20058;-76
2022/07/19 00:34:24;;;;;;;4.80;2.03;;;;;;;18.97;82.73;101699.25;6223129;28;20463;-76
2022/07/19 00:37:26;;;;;;;2.50;1.80;;;;;;;18.93;82.47;101697.75;6223042;28;20049;-76
2022/07/19 00:40:27;;;;;;;3.00;2.13;;;;;;;18.94;82.01;101695.94;6222473;28;20049;-76
2022/07/19 00:43:30;;;;;;;5.15;1.60;;;;;;;18.86;82.45;101693.03;6222991;28;20045;-74
2022/07/19 00:46:31;;;;;;;3.15;2.00;;;;;;;18.78;83.01;101701.56;6222491;28;20056;-76
2022/07/19 00:49:32;;;;;;;4.78;2.47;;;;;;;18.71;83.34;101702.94;6223028;28;20077;-76
2022/07/19 00:52:34;;;;;;;3.05;1.63;;;;;;;18.70;83.19;101695.94;6222601;28;20053;-76
2022/07/19 00:55:38;;;;;;;5.53;2.20;;;;;;;18.66;82.68;101705.91;6222484;28;20457;-76
2022/07/19 00:58:42;;;;;;;3.33;2.08;;;;;;;18.59;82.85;101699.34;6244678;28;20515;-76
2022/07/19 01:01:44;;;;;;;5.30;2.58;;;;;;;18.57;83.31;101697.75;6246278;28;20045;-76
2022/07/19 01:04:46;;;;;;;3.03;1.85;;;;;;;18.50;83.97;101694.69;6246649;28;20053;-76
2022/07/19 01:07:47;;;;;;;4.18;2.13;;;;;;;18.46;83.56;101696.72;6246904;28;20049;-76
2022/07/19 01:10:49;;;;;;;6.97;2.25;;;;;;;18.41;83.82;101693.53;6246702;28;20498;-76
2022/07/19 01:13:52;;;;;;;5.95;2.35;;;;;;;18.34;83.93;101702.03;6246804;28;20045;-76
2022/07/19 01:16:53;;;;;;;5.38;2.40;;;;;;;18.28;83.98;101703.34;6246957;28;20061;-75
2022/07/19 01:19:55;;;;;;;2.97;2.03;;;;;;;18.22;84.28;101701.13;6246501;28;20452;-76
2022/07/19 01:22:58;;;;;;;3.33;1.90;;;;;;;18.20;84.40;101698.53;6246801;28;20053;-76
2022/07/19 01:25:59;;;;;;;3.85;2.10;;;;;;;18.17;84.59;101693.47;6246119;28;20056;-76
2022/07/19 01:29:00;;;;;;;5.03;1.90;;;;;;;18.12;84.53;101700.03;6246718;28;20041;-76
2022/07/19 01:32:02;;;;;;;4.53;2.00;;;;;;;18.04;85.23;101697.94;6246352;28;20414;-76
2022/07/19 01:35:03;;;;;;;5.97;2.30;;;;;;;17.96;86.28;101690.47;6223579;28;20054;-76
2022/07/19 01:38:06;;;;;;;5.25;2.17;;;;;;;17.97;86.24;101691.31;6221960;28;20058;-76
2022/07/19 01:41:08;;;;;;;2.70;2.10;;;;;;;17.93;86.18;101693.34;6222102;28;20053;-76
2022/07/19 01:44:09;;;;;;;3.25;2.25;;;;;;;17.87;86.69;101687.59;6221745;28;20054;-76
2022/07/19 01:47:11;;;;;;;2.85;2.00;;;;;;;17.81;87.39;101683.56;6221752;28;20429;-76
2022/07/19 01:50:14;;;;;;;4.43;2.08;;;;;;;17.78;86.93;101685.59;6221940;28;20141;-76
2022/07/19 01:53:17;;;;;;;3.80;2.25;;;;;;;17.75;86.63;101684.81;6224737;28;20408;-76
2022/07/19 01:56:18;;;;;;;6.55;2.15;;;;;;;17.70;86.78;101684.25;6226655;28;20472;-76
2022/07/19 01:59:19;;;;;;;7.55;2.85;;;;;;;17.62;86.75;101686.59;6226617;28;20058;-76
2022/07/19 02:02:21;;;;;;;3.05;1.98;;;;;;;17.54;86.53;101686.28;6234258;28;20045;-76
2022/07/19 02:05:22;;;;;;;4.60;2.42;;;;;;;17.49;87.28;101691.91;6250538;28;20428;-76
2022/07/19 02:08:25;;;;;;;5.05;2.67;;;;;;;17.49;87.22;101688.38;6250053;28;20409;-76
2022/07/19 02:11:35;;;;;;;5.10;2.20;;;;;;;17.47;87.16;101691.13;6226104;28;20054;-76
2022/07/19 02:14:37;;;;;;;2.88;2.10;;;;;;;17.47;87.05;101687.63;6226434;28;20050;-76
2022/07/19 02:17:38;;;;;;;5.07;2.17;;;;;;;17.39;87.22;101692.59;6228628;28;20623;-76
2022/07/19 02:20:39;;;;;;;3.60;2.25;;;;;;;17.36;86.97;101688.34;6250596;28;20432;-75
2022/07/19 02:23:42;;;;;;;5.47;2.63;;;;;;;17.25;86.91;101688.19;6250640;28;20075;-75
2022/07/19 02:26:44;;;;;;;6.13;2.35;;;;;;;17.23;86.67;101687.47;6250665;28;20057;-76
2022/07/19 02:29:45;;;;;;;3.17;2.10;;;;;;;17.27;86.35;101693.44;6250384;28;20050;-76
2022/07/19 02:32:47;;;;;;;2.95;2.17;;;;;;;17.21;86.52;101695.53;6242033;28;20069;-76
2022/07/19 02:35:48;;;;;;;3.55;2.13;;;;;;;17.16;86.71;101687.00;6225814;28;20052;-75
2022/07/19 02:38:51;;;;;;;3.28;2.20;;;;;;;17.16;87.00;101692.31;6225982;28;20057;-76
2022/07/19 02:41:52;;;;;;;5.15;2.47;;;;;;;17.16;86.85;101688.81;6226435;28;20079;-76
2022/07/19 02:44:54;;;;;;;6.57;2.90;;;;;;;17.13;86.86;101692.53;6225778;28;20497;-76
2022/07/19 02:47:55;;;;;;;5.93;2.35;;;;;;;17.10;87.05;101691.88;6225540;28;20050;-76
2022/07/19 02:50:56;;;;;;;3.38;2.40;;;;;;;17.04;87.80;101694.94;6225551;28;20067;-76
2022/07/19 02:53:59;;;;;;;4.55;2.30;;;;;;;17.02;87.89;101688.88;6225273;28;20382;-76
2022/07/19 02:57:00;;;;;;;2.60;1.90;;;;;;;17.00;87.73;101691.63;6233907;28;20045;-76
2022/07/19 03:00:02;;;;;;;3.53;2.28;;;;;;;16.97;88.07;101691.81;6249670;28;20053;-76
2022/07/19 03:06:19;;;;;;;2.60;2.00;;;;;;;16.86;88.51;101695.19;6248087;28;20049;-75
2022/07/19 03:09:22;;;;;;;5.35;2.60;;;;;;;16.82;88.51;101688.38;6249587;28;20049;-75
2022/07/19 03:12:23;;;;;;;5.30;2.88;;;;;;;16.77;88.57;101695.78;6249656;28;20496;-76
2022/07/19 03:15:25;;;;;;;4.20;2.22;;;;;;;16.76;88.74;101698.50;6249261;28;20061;-75
2022/07/19 03:18:26;;;;;;;4.88;2.15;;;;;;;16.79;88.46;101690.38;6249811;28;20045;-75
2022/07/19 03:21:27;;;;;;;4.35;2.38;;;;;;;16.78;88.60;101696.63;6249179;28;20046;-76
2022/07/19 03:24:30;;;;;;;3.55;2.08;;;;;;;16.73;88.46;101696.94;6249374;28;20056;-76
2022/07/19 03:27:31;;;;;;;4.10;2.70;;;;;;;16.69;88.24;101696.22;6249289;28;20056;-75
2022/07/19 03:30:33;;;;;;;5.00;2.30;;;;;;;16.70;88.53;101707.69;6244169;28;20046;-75
2022/07/19 03:33:34;;;;;;;4.75;2.50;;;;;;;16.68;88.49;101707.81;6248554;28;20053;-75
2022/07/19 03:36:36;;;;;;;2.92;2.17;;;;;;;16.67;88.43;101692.84;6248947;28;20049;-75
2022/07/19 03:39:38;;;;;;;6.18;2.55;;;;;;;16.70;88.82;101695.28;6249082;28;20053;-76
2022/07/19 03:42:40;;;;;;;5.35;2.22;;;;;;;16.72;88.24;101692.56;6250738;28;20049;-75
2022/07/19 03:45:41;;;;;;;3.10;2.20;;;;;;;16.69;87.81;101698.88;6252051;28;20437;-76
2022/07/19 03:48:43;;;;;;;2.97;2.30;;;;;;;16.66;88.50;101695.56;6248683;28;20053;-75
2022/07/19 03:51:44;;;;;;;2.80;2.08;;;;;;;16.67;88.87;101698.16;6248863;28;20049;-75
2022/07/19 03:54:47;;;;;;;4.28;2.65;;;;;;;16.66;88.98;101708.84;6248510;28;20489;-76
2022/07/19 03:57:48;;;;;;;3.80;2.17;;;;;;;16.65;88.73;101705.34;6248648;28;20068;-76
2022/07/19 04:00:50;;;;;;;5.80;3.00;;;;;;;16.65;88.87;101704.47;6235601;28;20050;-76
2022/07/19 04:03:51;;;;;;;5.32;2.63;;;;;;;16.65;89.19;101691.22;6223820;28;20168;-76
2022/07/19 04:06:52;;;;;;;4.95;2.72;;;;;;;16.67;89.12;101695.50;6223663;28;20057;-76
2022/07/19 04:09:56;;;;;;;4.10;2.05;;;;;;;16.69;88.58;101709.50;6223453;28;20402;-76
2022/07/19 04:12:57;;;;;;;6.28;2.70;;;;;;;16.70;88.95;101708.53;6224014;28;20046;-76
2022/07/19 04:15:59;;;;;;;4.78;2.60;;;;;;;16.71;89.41;101712.03;6240869;28;20049;-76
2022/07/19 04:19:00;;;;;;;3.40;2.13;;;;;;;16.72;89.13;101712.00;6242044;28;20046;-76
2022/07/19 04:22:01;;;;;;;6.03;2.72;;;;;;;16.73;89.81;101711.03;6233919;28;20046;-76
2022/07/19 04:25:08;;;;;;;3.85;2.42;;;;;;;16.78;90.33;101715.22;6235335;28;20049;-76
2022/07/19 04:28:09;;;;;;;6.20;3.03;;;;;;;16.78;91.09;101709.91;6235028;28;20038;-76
2022/07/19 04:31:11;;;;;;;5.18;2.58;;;;;;;16.81;90.58;101717.69;6242735;28;20045;-76
2022/07/19 04:34:12;;;;;;;4.72;2.45;;;;;;;16.83;90.92;101710.44;6241683;28;20452;-76
2022/07/19 04:37:13;;;;;;;5.50;2.50;;;;;;;16.90;91.06;101714.44;6231141;28;20052;-76
2022/07/19 04:40:16;;;;;;;5.45;2.92;;;;;;;16.93;90.72;101708.91;6232450;28;20042;-75
2022/07/19 04:43:18;;;;;;;4.30;2.80;;;;;;;16.95;90.43;101707.88;6231593;28;20516;-76
2022/07/19 04:46:20;;;;;;;4.32;2.58;;;;;;;16.96;89.80;101706.91;6241553;28;20057;-76
2022/07/19 04:49:22;;;;;;;3.90;2.58;;;;;;;16.97;89.50;101707.75;6247201;28;20041;-76
2022/07/19 04:52:23;;;;;;;3.67;2.33;;;;;;;16.98;88.94;101712.13;6241129;28;20050;-76
2022/07/19 04:55:26;;;;;;;4.38;2.40;;;;;;;16.99;88.62;101712.03;6241273;28;20053;-76
2022/07/19 04:58:28;;;;;;;4.82;2.70;;;;;;;17.04;88.13;101717.03;6241690;28;20042;-75
2022/07/19 05:01:30;;;;;;;4.65;2.50;;;;;;;17.11;87.66;101721.00;6241964;28;20045;-75
2022/07/19 05:04:32;;;;;;;4.35;2.13;;;;;;;17.18;86.95;101724.13;6235817;28;20049;-76
2022/07/19 05:07:33;;;;;;;5.38;2.80;;;;;;;17.20;86.87;101728.34;6228231;28;20127;-76
2022/07/19 05:10:36;;;;;;;6.35;2.65;;;;;;;17.23;86.55;101725.50;6236041;28;20045;-76
2022/07/19 05:13:37;;;;;;;4.05;2.40;;;;;;;17.23;86.33;101720.19;6231908;28;20049;-76
2022/07/19 05:16:39;;;;;;;5.38;2.83;;;;;;;17.26;85.73;101716.50;6221945;28;20046;-75
2022/07/19 05:19:40;;;;;;;3.85;2.42;;;;;;;17.32;85.02;101721.41;6232551;28;20046;-76
2022/07/19 05:22:42;;;;;;;4.45;2.38;;;;;;;17.37;84.51;101718.44;6238955;28;20464;-76
2022/07/19 05:25:44;;;;;;;4.22;2.83;;;;;;;17.44;83.92;101712.63;6227345;28;20472;-76
2022/07/19 05:28:46;;;;;;;3.88;2.38;;;;;;;17.53;83.57;101720.91;6238219;28;20045;-76
2022/07/19 05:31:47;;;;;;;5.95;3.08;;;;;;;17.60;82.94;101725.72;6235152;28;20049;-76
2022/07/19 05:34:49;;;;;;;4.22;2.50;;;;;;;17.68;81.29;101723.41;6234019;28;20484;-76
2022/07/19 05:37:50;;;;;;;3.53;2.22;;;;;;;17.75;81.00;101729.16;6239502;28;20068;-76
2022/07/19 05:40:53;;;;;;;4.72;2.30;;;;;;;17.83;80.59;101723.34;6243363;28;20056;-76
2022/07/19 05:43:54;;;;;;;5.32;2.75;;;;;;;17.87;80.20;101730.16;6236115;28;20053;-76
2022/07/19 05:46:55;;;;;;;5.15;2.75;;;;;;;17.95;79.33;101730.50;6245337;28;20517;-76
2022/07/19 05:49:59;;;;;;;3.33;2.00;;;;;;;18.02;79.35;101715.78;6246159;28;20045;-75
2022/07/19 05:53:00;;;;;;;3.53;2.00;;;;;;;18.14;79.40;101720.28;6246589;28;20049;-75
2022/07/19 05:56:03;;;;;;;4.25;2.20;;;;;;;18.24;79.06;101716.00;6246095;28;20053;-76
2022/07/19 05:59:04;;;;;;;4.90;2.40;;;;;;;18.32;79.03;101718.13;6223244;28;20053;-76
2022/07/19 06:02:06;;;;;;;4.63;2.33;;;;;;;18.41;78.80;101721.97;6221629;28;20050;-76
2022/07/19 06:05:08;;;;;;;3.83;2.17;;;;;;;18.49;77.68;101724.94;6221601;28;20057;-75
2022/07/19 06:08:09;;;;;;;3.88;2.70;;;;;;;18.60;76.90;101721.50;6221905;28;20057;-76
2022/07/19 06:11:13;;;;;;;4.38;2.60;;;;;;;18.68;76.25;101733.31;6221784;28;20137;-76
2022/07/19 06:14:14;;;;;;;6.85;2.55;;;;;;;18.77;75.78;101733.63;6221765;28;20061;-76
2022/07/19 06:17:15;;;;;;;5.93;2.65;;;;;;;18.82;74.69;101731.50;6221768;28;20046;-77
2022/07/19 06:20:16;;;;;;;4.45;2.47;;;;;;;18.89;73.85;101728.25;6221688;28;20493;-76
2022/07/19 06:23:18;;;;;;;3.88;1.90;;;;;;;18.99;73.68;101723.97;6221525;28;20061;-76
2022/07/19 06:26:20;;;;;;;3.25;2.22;;;;;;;19.06;73.88;101720.84;6222594;28;20045;-76
2022/07/19 06:29:23;;;;;;;7.95;2.90;;;;;;;19.18;73.43;101722.63;6221534;28;20045;-76
2022/07/19 06:32:24;;;;;;;3.70;2.08;;;;;;;19.25;73.07;101721.19;6221571;28;20050;-76
2022/07/19 06:35:25;;;;;;;2.85;1.90;;;;;;;19.35;71.85;101719.56;6221172;28;20050;-76
2022/07/19 06:38:27;;;;;;;4.22;2.58;;;;;;;19.48;71.36;101714.13;6221767;28;20082;-76
2022/07/19 06:41:29;;;;;;;3.20;2.15;;;;;;;19.59;70.47;101703.50;6225491;28;20050;-75
2022/07/19 06:44:31;;;;;;;3.55;2.13;;;;;;;19.72;70.08;101714.13;6225941;28;20057;-76
2022/07/19 06:47:33;;;;;;;4.40;2.30;;;;;;;19.83;69.55;101713.31;6225715;28;20054;-76
2022/07/19 06:50:34;;;;;;;2.80;1.98;;;;;;;19.89;69.72;101705.66;6225393;28;20107;-76
2022/07/19 06:53:37;;;;;;;5.88;2.50;;;;;;;20.04;68.96;101716.13;6237360;28;20413;-77
2022/07/19 06:56:39;;;;;;;3.15;2.30;;;;;;;20.19;68.85;101709.59;6242825;28;20390;-76
2022/07/19 06:59:41;;;;;;;6.40;2.45;;;;;;;20.31;68.46;101716.66;6223310;28;20042;-75
2022/07/19 07:02:42;;;;;;;4.18;2.17;;;;;;;20.42;68.40;101719.28;6223908;28;20054;-76
2022/07/19 07:05:43;;;;;;;7.88;2.25;;;;;;;20.55;68.27;101715.69;6225194;28;20050;-76
2022/07/19 07:08:45;;;;;;;4.38;2.00;;;;;;;20.66;68.02;101713.00;6227548;28;20057;-75
2022/07/19 07:11:47;;;;;;;3.30;2.50;;;;;;;20.74;67.60;101714.06;6249478;28;20519;-76
2022/07/19 07:14:49;;;;;;;5.70;2.42;;;;;;;20.83;67.63;101716.97;6249309;28;20060;-75
2022/07/19 07:17:50;;;;;;;4.78;1.90;;;;;;;20.95;67.18;101716.84;6249288;28;20042;-76
2022/07/19 07:20:51;;;;;;;4.20;2.22;;;;;;;21.14;66.07;101713.50;6249392;28;20050;-75
2022/07/19 07:23:53;;;;;;;5.03;2.35;;;;;;;21.28;65.58;101709.69;6248722;28;20061;-76
2022/07/19 07:26:56;;;;;;;3.80;1.92;;;;;;;21.42;64.03;101708.56;6225633;28;20050;-76
2022/07/19 07:29:57;;;;;;;7.03;2.30;;;;;;;21.54;62.79;101707.53;6224592;28;20057;-77
2022/07/19 07:32:58;;;;;;;2.70;1.80;;;;;;;21.66;62.46;101713.66;6237276;28;20049;-76
2022/07/19 07:36:00;;;;;;;3.63;1.80;;;;;;;21.77;62.31;101711.78;6241632;28;20049;-77
2022/07/19 07:39:01;;;;;;;2.95;2.35;;;;;;;21.87;60.88;101710.97;6249016;28;20102;-77
2022/07/19 07:42:04;;;;;;;2.17;1.60;;;;;;;21.98;60.18;101714.44;6248844;28;20500;-76
2022/07/19 07:45:09;;;;;;;3.75;2.30;;;;;;;22.12;59.56;101712.41;6246990;28;20463;-75
2022/07/19 07:48:11;;;;;;;1.98;1.50;;;;;;;22.20;58.61;101705.41;6246879;28;20045;-78
2022/07/19 07:51:12;;;;;;;2.78;2.15;;;;;;;22.29;58.68;101698.41;6226248;28;20060;-78
2022/07/19 07:54:14;;;;;;;2.88;1.92;;;;;;;22.47;59.04;101701.28;6227353;28;20057;-77
2022/07/19 07:57:16;;;;;;;26.52;13.70;;;;;;;22.65;57.64;101696.97;6241011;28;20045;-78
2022/07/19 08:00:18;;;;;;;10.05;4.47;;;;;;;22.76;56.33;101696.88;6249755;28;20497;-78
2022/07/19 08:03:19;;;;;;;2.70;1.65;;;;;;;22.96;55.31;101691.56;6249611;28;20052;-78
2022/07/19 08:06:21;;;;;;;2.70;1.70;;;;;;;23.08;55.22;101677.06;6250104;28;20532;-78
2022/07/19 08:09:22;;;;;;;4.25;1.90;;;;;;;23.20;54.23;101678.59;6249203;28;20053;-77
2022/07/19 08:12:25;;;;;;;2.20;1.30;;;;;;;23.33;54.17;101672.94;6249824;28;20052;-78
2022/07/19 08:15:26;;;;;;;3.15;1.80;;;;;;;23.42;53.61;101671.25;6250958;28;20424;-79
2022/07/19 08:18:27;;;;;;;1.50;1.40;;;;;;;23.54;53.03;101668.25;6250306;28;20046;-77
2022/07/19 08:21:29;;;;;;;3.38;1.83;;;;;;;23.70;53.31;101664.16;6248887;28;20143;-77
2022/07/19 08:24:30;;;;;;;2.78;1.35;;;;;;;23.87;51.53;101663.41;6246994;28;20417;-77
2022/07/19 08:27:33;;;;;;;3.08;1.27;;;;;;;24.05;50.05;101663.50;6248051;28;20053;-76
2022/07/19 08:30:35;;;;;;;3.83;2.13;;;;;;;24.15;48.89;101663.44;6247426;28;20455;-76
2022/07/19 08:33:38;;;;;;;1.35;1.10;;;;;;;24.32;47.21;101659.97;6248100;28;20045;-77
2022/07/19 08:36:39;;;;;;;1.90;1.10;;;;;;;24.49;47.28;101661.91;6247631;28;20460;-77
2022/07/19 08:39:40;;;;;;;4.63;1.48;;;;;;;24.59;46.44;101661.84;6247819;28;20490;-76
2022/07/19 08:42:43;;;;;;;4.55;1.70;;;;;;;24.77;46.84;101659.19;6247464;28;20049;-76
2022/07/19 08:45:45;;;;;;;3.83;1.40;;;;;;;24.85;47.22;101650.38;6247652;28;20072;-77
2022/07/19 08:48:48;;;;;;;2.33;1.35;;;;;;;24.87;46.62;101659.09;6247147;28;20050;-75
2022/07/19 08:51:49;;;;;;;2.08;1.48;;;;;;;24.99;45.83;101656.03;6245716;28;20053;-76
2022/07/19 08:54:50;;;;;;;2.08;1.20;;;;;;;25.19;44.13;101659.44;6222385;28;20056;-76
2022/07/19 08:58:01;;;;;;;2.78;1.10;;;;;;;25.29;44.06;101645.88;6223031;28;20053;-76
2022/07/19 09:01:02;;;;;;;2.80;1.23;;;;;;;25.46;43.16;101652.25;6222596;28;20049;-76
2022/07/19 09:04:06;;;;;;;3.13;1.40;;;;;;;25.61;42.83;101650.66;6222300;28;20050;-75
2022/07/19 09:07:07;;;;;;;1.88;1.38;;;;;;;25.71;42.89;101643.34;6222369;28;20054;-76
2022/07/19 09:10:16;;;;;;;2.97;1.42;;;;;;;25.86;42.67;101642.78;6232736;28;20432;-75
2022/07/19 09:13:18;;;;;;;3.42;1.50;;;;;;;25.98;41.21;101639.66;6246839;28;20472;-76
2022/07/19 09:16:20;;;;;;;3.85;1.30;;;;;;;26.14;37.86;101640.75;6247149;28;20048;-77
2022/07/19 09:19:21;;;;;;;1.65;0.90;;;;;;;26.43;36.98;101635.81;6247653;28;20053;-76
2022/07/19 09:22:25;;;;;;;1.73;0.90;;;;;;;26.58;37.75;101637.91;6244628;28;20431;-75
2022/07/19 09:25:34;;;;;;;2.15;1.20;;;;;;;26.65;35.66;101631.66;6246657;28;20538;-75
2022/07/19 09:28:37;;;;;;;4.47;0.95;;;;;;;26.90;34.76;101635.25;6247127;28;20049;-76
2022/07/19 09:31:58;;;;;;;2.25;1.10;;;;;;;27.37;33.42;101629.19;6246686;28;20053;-75
2022/07/19 09:35:01;;;;;;;3.53;0.93;;;;;;;27.50;34.49;101629.53;6241114;28;20064;-76
2022/07/19 09:38:15;;;;;;;1.60;0.75;;;;;;;27.46;34.20;101621.94;6246912;28;20550;-77
2022/07/19 09:41:18;;;;;;;1.38;1.10;;;;;;;27.49;33.64;101627.00;6228841;28;20057;-76
2022/07/19 09:44:23;;;;;;;0.80;0.70;;;;;;;27.50;34.49;101629.53;6222226;28;20508;-75
2022/07/19 09:47:32;;;;;;;1.90;0.93;;;;;;;27.64;32.68;101621.72;6243254;28;20057;-77
2022/07/19 09:50:33;;;;;;;1.75;0.90;;;;;;;27.58;34.00;101623.28;6242879;28;20084;-77
2022/07/19 09:53:35;;;;;;;2.38;1.23;;;;;;;27.65;33.10;101624.25;6227005;28;20057;-77
2022/07/19 09:56:37;;;;;;;2.05;0.90;;;;;;;27.84;33.73;101628.44;6246351;28;20053;-77
2022/07/19 09:59:50;;;;;;;1.75;0.93;;;;;;;27.88;33.17;101628.94;6246434;28;20053;-77
2022/07/19 10:02:54;;;;;;;2.50;0.98;;;;;;;27.84;32.72;101612.25;6247317;28;20132;-77
2022/07/19 10:05:56;;;;;;;1.42;0.90;;;;;;;27.90;33.58;101619.66;6246068;28;20072;-76
2022/07/19 10:08:58;;;;;;;1.00;0.80;;;;;;;28.05;33.55;101617.91;6246757;28;20056;-77
2022/07/19 10:12:00;;;;;;;1.63;1.27;;;;;;;28.30;32.30;101613.25;6246670;28;20049;-77
2022/07/19 10:15:03;;;;;;;2.55;1.05;;;;;;;28.59;30.72;101613.63;6249268;28;20057;-77
2022/07/19 10:18:11;;;;;;;0.98;0.73;;;;;;;28.52;31.11;101606.22;6251520;28;20051;-77
2022/07/19 10:21:12;;;;;;;1.80;0.82;;;;;;;28.54;30.53;101598.75;6247985;28;20049;-77
2022/07/19 10:24:14;;;;;;;1.00;0.75;;;;;;;28.52;31.32;101598.13;6250704;28;20045;-76
2022/07/19 10:27:17;;;;;;;1.48;1.10;;;;;;;28.62;31.81;101602.44;6250570;28;20448;-77
2022/07/19 10:30:25;;;;;;;0.77;0.77;;;;;;;28.70;32.50;101595.09;6250955;28;20049;-77
2022/07/19 10:33:29;;;;;;;1.23;0.88;;;;;;;28.83;31.32;101602.63;6250879;28;20056;-77
2022/07/19 10:36:39;;;;;;;1.40;0.80;;;;;;;28.92;31.80;101590.69;6250329;28;20425;-77
2022/07/19 10:39:41;;;;;;;0.75;0.70;;;;;;;29.01;31.73;101581.53;6250514;28;20490;-76
2022/07/19 10:43:05;;;;;;;0.75;0.60;;;;;;;29.19;32.42;101574.94;6249290;28;20049;-77
2022/07/19 10:46:13;;;;;;;0.90;0.73;;;;;;;29.43;31.38;101577.38;6250686;28;20049;-77
2022/07/19 10:49:44;;;;;;;3.88;0.88;;;;;;;29.58;30.85;101577.44;6245967;28;20049;-75
2022/07/19 10:52:46;;;;;;;1.40;0.70;;;;;;;29.65;29.75;101585.66;6225861;28;20045;-77
2022/07/19 10:56:14;;;;;;;1.05;0.70;;;;;;;29.82;29.34;101563.59;6225656;28;20057;-77
2022/07/19 10:59:31;;;;;;;0.95;0.82;;;;;;;29.91;28.26;101569.75;6225936;28;20061;-77
2022/07/19 11:02:34;;;;;;;1.58;1.35;;;;;;;30.10;28.79;101570.19;6225647;28;20176;-77
2022/07/19 11:05:45;;;;;;;2.50;1.08;;;;;;;30.37;28.85;101574.09;6225405;28;20061;-77
2022/07/19 11:08:47;;;;;;;2.22;1.00;;;;;;;30.49;29.47;101559.00;6225316;28;20056;-76
2022/07/19 11:11:48;;;;;;;1.42;1.13;;;;;;;30.62;28.53;101564.56;6225549;28;20681;-77
2022/07/19 11:14:50;;;;;;;0.65;0.60;;;;;;;30.77;27.35;101559.06;6225182;28;20493;-77
2022/07/19 11:17:57;;;;;;;2.88;1.02;;;;;;;30.96;26.97;101546.69;6225551;28;20050;-77
2022/07/19 11:21:01;;;;;;;1.48;0.90;;;;;;;31.15;26.69;101553.31;6249180;28;20053;-77
2022/07/19 11:24:02;;;;;;;1.15;0.90;;;;;;;31.31;27.27;101550.34;6250728;28;20053;-77
2022/07/19 11:27:04;;;;;;;1.60;1.05;;;;;;;31.54;28.22;101539.19;6249245;28;20493;-77
2022/07/19 11:30:07;;;;;;;1.50;0.93;;;;;;;31.91;27.08;101535.19;6250183;28;20048;-77
2022/07/19 11:33:10;;;;;;;0.88;0.60;;;;;;;32.33;24.30;101531.34;6250277;28;20056;-77
2022/07/19 11:36:15;;;;;;;3.38;0.90;;;;;;;32.61;23.82;101529.53;6249930;28;20452;-76
2022/07/19 11:39:16;;;;;;;1.20;0.90;;;;;;;32.78;25.43;101517.19;6249825;28;20057;-77
2022/07/19 11:42:28;;;;;;;1.52;1.30;;;;;;;32.79;23.97;101525.16;6250368;28;20049;-77
2022/07/19 11:45:29;;;;;;;2.33;1.17;;;;;;;32.80;24.68;101521.38;6250717;28;20046;-77
2022/07/19 11:48:32;;;;;;;2.28;1.00;;;;;;;32.88;25.17;101516.75;6273382;22;20526;-72
2022/07/19 11:51:34;;;;;;;2.05;0.80;;;;;;;33.25;24.19;101507.94;6272342;28;20041;-72
2022/07/19 11:54:38;;;;;;;3.50;0.85;;;;;;;33.53;23.20;101509.56;6273196;28;20049;-72
2022/07/19 11:57:39;;;;;;;1.00;0.90;;;;;;;33.82;22.70;101508.19;6273300;28;20053;-71
2022/07/19 12:00:43;;;;;;;3.78;1.05;;;;;;;34.24;24.02;101503.13;6273000;28;20523;-70
2022/07/19 12:03:55;;;;;;;1.02;0.70;;;;;;;34.62;22.30;101500.38;6273553;28;20056;-70
2022/07/19 12:07:00;;;;;;;2.10;1.10;;;;;;;34.91;22.20;101495.28;6273169;28;20056;-70
2022/07/19 12:10:01;;;;;;;1.75;1.00;;;;;;;35.12;20.33;101491.34;6273055;28;20068;-70
2022/07/19 12:13:03;;;;;;;0.88;0.80;;;;;;;35.28;19.17;101487.97;6273007;28;20411;-70
2022/07/19 12:16:09;;;;;;;2.42;1.00;;;;;;;35.58;19.94;101496.28;6272798;28;20056;-71
2022/07/19 12:19:14;;;;;;;1.48;1.00;;;;;;;35.73;19.53;101493.16;6272526;28;20522;-70
2022/07/19 12:22:37;;;;;;;1.48;1.05;;;;;;;35.86;18.82;101494.88;6272678;28;20175;-70
2022/07/19 12:25:39;;;;;;;1.02;0.77;;;;;;;35.83;18.66;101494.25;6267593;28;20134;-70
2022/07/19 12:28:40;;;;;;;1.48;0.98;;;;;;;35.80;18.86;101485.69;6272531;28;20049;-70
2022/07/19 12:31:43;;;;;;;0.93;0.80;;;;;;;35.88;20.17;101477.16;6272367;28;20045;-70
2022/07/19 12:34:49;;;;;;;0.95;0.68;;;;;;;35.93;19.03;101476.44;6272145;28;20053;-70
2022/07/19 12:38:04;;;;;;;2.08;0.90;;;;;;;36.03;19.53;101474.03;6271479;28;20045;-70
2022/07/19 12:41:07;;;;;;;1.52;1.15;;;;;;;36.29;18.51;101461.81;6272197;28;20049;-70
2022/07/19 12:44:08;;;;;;;2.70;1.00;;;;;;;36.53;19.17;101460.00;6272109;28;20057;-70
2022/07/19 12:47:10;;;;;;;0.75;0.73;;;;;;;36.82;18.74;101455.47;6271663;28;20053;-70
2022/07/19 12:50:21;;;;;;;4.55;1.10;;;;;;;36.75;18.74;101455.59;6271882;28;20048;-73
2022/07/19 12:53:22;;;;;;;1.00;0.90;;;;;;;36.78;19.49;101454.28;6271795;28;20055;-70
2022/07/19 12:56:24;;;;;;;1.20;1.10;;;;;;;36.94;18.42;101452.75;6272013;28;20099;-71
2022/07/19 12:59:40;;;;;;;1.60;1.13;;;;;;;37.05;18.79;101451.91;6271747;28;20060;-70
2022/07/19 13:02:42;;;;;;;2.22;1.75;;;;;;;36.91;17.33;101448.59;6272144;28;20049;-70
2022/07/19 13:05:44;;;;;;;1.83;1.20;;;;;;;36.44;18.06;101455.94;6271472;28;20056;-70
2022/07/19 13:08:46;;;;;;;1.27;1.10;;;;;;;36.18;17.63;101457.16;6271918;28;20056;-70
2022/07/19 13:11:47;;;;;;;2.00;1.10;;;;;;;36.35;17.96;101452.69;6271390;28;20488;-71
2022/07/19 13:14:48;;;;;;;3.70;1.77;;;;;;;36.60;17.49;101457.13;6271420;28;20536;-70
2022/07/19 13:17:50;;;;;;;2.67;1.15;;;;;;;36.81;18.45;101446.41;6270087;28;20063;-71
2022/07/19 13:20:52;;;;;;;3.42;1.40;;;;;;;36.89;17.09;101449.88;6271622;28;20523;-70
2022/07/19 13:23:54;;;;;;;1.88;1.10;;;;;;;36.81;16.38;101448.31;6271302;28;20064;-70
2022/07/19 13:26:55;;;;;;;2.03;1.10;;;;;;;36.58;16.34;101438.22;6271312;28;20398;-70
2022/07/19 13:29:57;;;;;;;2.20;1.20;;;;;;;36.70;17.33;101435.44;6271212;28;20060;-70
2022/07/19 13:32:58;;;;;;;1.40;1.10;;;;;;;36.97;17.01;101436.66;6271327;28;20041;-71
2022/07/19 13:36:01;;;;;;;2.30;1.20;;;;;;;37.41;16.97;101436.22;6271071;28;20420;-71
2022/07/19 13:39:02;;;;;;;1.17;1.05;;;;;;;37.36;16.79;101427.88;6270786;28;20052;-70
2022/07/19 13:42:04;;;;;;;1.25;1.00;;;;;;;37.46;16.97;101428.09;6270929;28;20045;-71
2022/07/19 13:45:06;;;;;;;1.60;1.20;;;;;;;37.58;16.13;101424.25;6270598;28;20393;-71
2022/07/19 13:48:07;;;;;;;2.78;1.75;;;;;;;37.55;15.44;101421.16;6271954;28;20424;-70
2022/07/19 13:51:10;;;;;;;1.63;0.95;;;;;;;37.67;16.60;101421.09;6275934;28;20052;-71
2022/07/19 13:54:11;;;;;;;1.23;0.90;;;;;;;37.85;14.07;101415.44;6276054;28;20045;-69
2022/07/19 13:57:13;;;;;;;2.45;1.20;;;;;;;37.81;15.19;101409.56;6275881;28;20056;-70
2022/07/19 14:00:17;;;;;;;0.82;0.80;;;;;;;38.02;15.60;101408.06;6276203;28;20049;-70
2022/07/19 14:03:20;;;;;;;1.80;1.30;;;;;;;38.13;14.43;101408.22;6276142;28;20088;-70
2022/07/19 14:06:25;;;;;;;1.35;0.95;;;;;;;37.95;15.11;101396.41;6275541;28;20045;-72
2022/07/19 14:09:26;;;;;;;1.00;0.90;;;;;;;37.95;15.51;101399.13;6275744;28;20057;-72
2022/07/19 14:12:27;;;;;;;1.17;0.73;;;;;;;37.95;15.40;101403.81;6275611;28;20045;-72